Time;durP1;ratioP1;P1;durP2;ratioP2;P2;SDS_P1;SDS_P2;PMS_P1;PMS_P2;Temp;Humidity;BMP_temperature;BMP_pressure;BME280_temperature;BME280_humidity;BME280_pressure;Samples;Min_cycle;Max_cycle;Signal;HPM_P1;HPM_P2
2023/12/30 00:02:07;;;;;;;89.15;68.70;;;12.20;99.90;;;;;;4955772;29;20052;-50
2023/12/30 00:04:33;;;;;;;95.43;70.95;;;12.20;99.90;;;;;;4955491;29;20118;-52
2023/12/30 00:06:59;;;;;;;95.68;71.57;;;12.10;99.90;;;;;;4955170;29;20501;-51
2023/12/30 00:09:24;;;;;;;95.93;71.70;;;12.20;99.90;;;;;;4952600;29;20027;-51
2023/12/30 00:11:50;;;;;;;96.63;71.15;;;12.20;99.90;;;;;;4955099;29;20475;-51
2023/12/30 00:14:16;;;;;;;97.28;70.68;;;12.30;99.90;;;;;;4889232;29;20134;-51
2023/12/30 00:16:42;;;;;;;100.63;73.10;;;12.20;99.90;;;;;;4955381;29;20446;-49
2023/12/30 00:19:08;;;;;;;104.60;74.15;;;12.20;99.90;;;;;;4955009;29;20085;-51
2023/12/30 00:21:34;;;;;;;99.70;71.75;;;12.20;99.90;;;;;;4955146;29;20031;-51
2023/12/30 00:24:00;;;;;;;99.22;71.50;;;12.20;99.90;;;;;;4886186;29;20511;-52
2023/12/30 00:26:46;;;;;;;108.68;79.00;;;12.20;99.90;;;;;;4917604;29;20056;-49
2023/12/30 00:29:12;;;;;;;116.30;84.10;;;12.10;99.90;;;;;;4914227;29;20123;-51
2023/12/30 00:31:38;;;;;;;116.97;86.57;;;12.10;99.90;;;;;;4914365;29;20119;-49
2023/12/30 00:34:04;;;;;;;136.25;102.53;;;12.10;99.90;;;;;;4898400;29;20107;-50
2023/12/30 00:36:29;;;;;;;102.95;79.70;;;12.20;99.90;;;;;;4914208;29;20559;-52
2023/12/30 00:38:55;;;;;;;97.05;72.57;;;12.10;99.90;;;;;;4898166;29;20149;-50
2023/12/30 00:41:25;;;;;;;91.43;69.07;;;12.20;99.90;;;;;;4914159;29;20036;-49
2023/12/30 00:43:51;;;;;;;89.13;67.35;;;12.20;99.90;;;;;;4882636;29;20524;-50
2023/12/30 00:46:21;;;;;;;91.53;68.18;;;12.20;99.90;;;;;;4914212;29;20043;-50
2023/12/30 00:48:48;;;;;;;84.63;66.53;;;12.30;99.90;;;;;;4914008;29;20043;-51
2023/12/30 00:51:13;;;;;;;89.05;66.18;;;12.30;99.90;;;;;;4913945;29;20024;-51
2023/12/30 00:53:39;;;;;;;90.55;67.63;;;12.30;99.90;;;;;;4913932;29;20396;-49
2023/12/30 00:56:05;;;;;;;91.15;67.93;;;12.30;99.90;;;;;;4913944;29;20068;-52
2023/12/30 00:58:31;;;;;;;87.22;64.22;;;12.30;99.90;;;;;;4913658;29;20032;-51
2023/12/30 01:00:57;;;;;;;89.82;65.20;;;12.20;99.90;;;;;;4898080;29;20043;-49
2023/12/30 01:03:23;;;;;;;87.90;63.65;;;12.30;99.90;;;;;;4885727;29;20040;-50
2023/12/30 01:05:48;;;;;;;83.20;63.50;;;12.20;99.90;;;;;;4935363;29;20032;-52
2023/12/30 01:08:14;;;;;;;87.63;66.25;;;12.20;99.90;;;;;;4934968;29;20031;-50
2023/12/30 01:10:40;;;;;;;80.15;63.17;;;12.20;99.90;;;;;;4935360;29;20039;-50
2023/12/30 01:13:07;;;;;;;84.80;63.53;;;12.20;99.90;;;;;;4935012;29;20491;-50
2023/12/30 01:15:34;;;;;;;85.22;66.35;;;12.30;99.90;;;;;;4900991;29;20043;-52
2023/12/30 01:18:00;;;;;;;85.63;66.60;;;12.30;99.90;;;;;;4934919;29;20032;-52
2023/12/30 01:20:26;;;;;;;90.35;67.53;;;12.30;99.90;;;;;;4934828;29;20039;-50
2023/12/30 01:22:52;;;;;;;81.78;63.13;;;12.30;99.90;;;;;;4934958;29;20028;-52
2023/12/30 01:25:18;;;;;;;85.93;64.57;;;12.20;99.90;;;;;;4934886;29;20028;-51
2023/12/30 01:27:43;;;;;;;88.80;62.30;;;12.20;99.90;;;;;;4934779;29;20051;-51
2023/12/30 01:30:09;;;;;;;85.45;63.75;;;12.20;99.90;;;;;;4934996;29;20036;-51
2023/12/30 01:32:36;;;;;;;90.22;64.80;;;12.10;99.90;;;;;;4934582;29;20514;-50
2023/12/30 01:35:03;;;;;;;78.47;60.88;;;12.00;99.90;;;;;;4934849;29;20054;-50
2023/12/30 01:37:29;;;;;;;78.03;59.85;;;12.10;99.90;;;;;;4916785;29;20488;-50
2023/12/30 01:39:55;;;;;;;76.72;57.25;;;12.10;99.90;;;;;;4934587;29;20498;-51
2023/12/30 01:42:21;;;;;;;79.10;57.05;;;12.20;99.90;;;;;;4934895;29;20035;-53
2023/12/30 01:44:46;;;;;;;73.75;55.95;;;12.20;99.90;;;;;;4934636;29;20187;-50
2023/12/30 01:47:12;;;;;;;79.90;59.20;;;12.30;99.90;;;;;;4934602;29;20043;-51
2023/12/30 01:49:39;;;;;;;80.65;58.65;;;12.20;99.90;;;;;;4935384;29;20094;-51
2023/12/30 01:52:06;;;;;;;80.32;57.78;;;12.20;99.90;;;;;;4922879;29;20044;-50
2023/12/30 01:54:32;;;;;;;77.97;58.70;;;12.20;99.90;;;;;;4940819;29;20043;-52
2023/12/30 01:56:59;;;;;;;78.10;59.05;;;12.20;99.90;;;;;;4940866;29;20043;-51
2023/12/30 01:59:26;;;;;;;81.10;59.10;;;12.20;99.90;;;;;;4941165;29;20110;-51
2023/12/30 02:01:55;;;;;;;74.47;57.42;;;12.20;99.90;;;;;;4941087;29;20468;-51
2023/12/30 02:04:20;;;;;;;72.28;56.78;;;12.10;99.90;;;;;;4941316;29;20028;-52
2023/12/30 02:06:46;;;;;;;68.57;52.00;;;12.10;99.90;;;;;;4940747;29;20042;-50
2023/12/30 02:09:12;;;;;;;68.25;52.40;;;12.10;99.90;;;;;;4940915;29;20047;-51
2023/12/30 02:11:38;;;;;;;79.97;61.85;;;12.10;99.90;;;;;;4915576;29;20094;-50
2023/12/30 02:14:04;;;;;;;77.13;58.10;;;12.10;99.90;;;;;;4894585;29;20047;-50
2023/12/30 02:16:30;;;;;;;79.18;56.30;;;12.10;99.90;;;;;;4959886;29;20039;-52
2023/12/30 02:18:55;;;;;;;74.00;55.47;;;12.10;99.90;;;;;;4959682;29;20154;-52
2023/12/30 02:21:21;;;;;;;75.63;57.17;;;12.10;99.90;;;;;;4959945;28;20563;-51
2023/12/30 02:23:53;;;;;;;75.68;56.67;;;12.10;99.90;;;;;;4959779;29;20509;-51
2023/12/30 02:26:19;;;;;;;73.95;57.83;;;12.10;99.90;;;;;;4959635;29;20114;-50
2023/12/30 02:28:45;;;;;;;76.45;56.05;;;12.00;99.90;;;;;;4959956;28;20114;-51
2023/12/30 02:31:11;;;;;;;81.82;61.55;;;11.90;99.90;;;;;;4959860;29;20166;-50
2023/12/30 02:33:36;;;;;;;82.90;64.28;;;11.90;99.90;;;;;;4959519;29;20590;-52
2023/12/30 02:36:02;;;;;;;81.20;60.42;;;11.90;99.90;;;;;;4959493;28;20039;-51
2023/12/30 02:38:28;;;;;;;78.38;60.50;;;11.90;99.90;;;;;;4959712;28;20041;-52
2023/12/30 02:40:53;;;;;;;80.80;59.10;;;11.80;99.90;;;;;;4959450;28;20027;-50
2023/12/30 02:43:19;;;;;;;70.10;53.58;;;11.80;99.90;;;;;;4959728;29;20053;-52
2023/12/30 02:45:45;;;;;;;75.22;57.63;;;11.90;99.90;;;;;;4959544;29;20037;-49
2023/12/30 02:48:10;;;;;;;72.18;55.83;;;11.90;99.90;;;;;;4958836;29;20038;-50
2023/12/30 02:50:36;;;;;;;79.30;59.60;;;11.90;99.90;;;;;;4959833;29;20031;-51
2023/12/30 02:53:02;;;;;;;71.05;54.20;;;12.00;99.90;;;;;;4959523;28;20039;-52
2023/12/30 02:55:28;;;;;;;72.65;53.60;;;12.00;99.90;;;;;;4925133;29;20047;-52
2023/12/30 02:57:53;;;;;;;68.68;52.55;;;12.00;99.90;;;;;;4959160;28;20042;-53
2023/12/30 03:00:19;;;;;;;71.57;53.65;;;12.00;99.90;;;;;;4959528;29;20042;-50
2023/12/30 03:02:45;;;;;;;71.78;53.10;;;12.00;99.90;;;;;;4921489;29;20062;-52
2023/12/30 03:05:11;;;;;;;73.78;53.35;;;12.00;99.90;;;;;;4956578;29;20043;-52
2023/12/30 03:07:37;;;;;;;72.45;52.25;;;12.00;99.90;;;;;;4956745;29;20094;-51
2023/12/30 03:10:04;;;;;;;72.32;54.50;;;12.00;99.90;;;;;;4956058;29;20031;-52
2023/12/30 03:12:30;;;;;;;72.68;54.45;;;12.00;99.90;;;;;;4906318;29;20699;-51
2023/12/30 03:14:56;;;;;;;73.38;55.97;;;12.00;99.90;;;;;;4937891;29;20044;-51
2023/12/30 03:17:22;;;;;;;79.75;58.95;;;11.90;99.90;;;;;;4956311;29;20122;-51
2023/12/30 03:19:48;;;;;;;70.55;50.42;;;;;;;;;;4956058;29;20035;-51
2023/12/30 03:22:14;;;;;;;67.63;52.10;;;11.10;99.90;;;;;;4956147;29;20035;-51
2023/12/30 03:24:39;;;;;;;68.55;53.35;;;11.10;99.90;;;;;;4956628;29;20097;-50
2023/12/30 03:27:05;;;;;;;73.63;55.33;;;11.10;99.90;;;;;;4955649;29;20055;-50
2023/12/30 03:29:31;;;;;;;71.75;53.35;;;11.10;99.90;;;;;;4938029;29;20131;-52
2023/12/30 03:31:57;;;;;;;73.93;52.85;;;11.10;99.90;;;;;;4955915;29;20039;-51
2023/12/30 03:34:23;;;;;;;70.97;51.03;;;11.20;99.90;;;;;;4921810;29;20451;-49
2023/12/30 03:36:49;;;;;;;66.78;48.83;;;11.30;99.90;;;;;;4955866;29;20083;-50
2023/12/30 03:39:15;;;;;;;72.30;53.58;;;11.50;99.90;;;;;;4955666;29;20027;-52
2023/12/30 03:41:40;;;;;;;53.60;40.45;;;11.40;99.90;;;;;;4955975;29;20028;-51
2023/12/30 03:44:06;;;;;;;56.40;38.75;;;11.30;99.90;;;;;;4955601;29;20054;-52
2023/12/30 03:46:32;;;;;;;52.03;37.85;;;11.20;99.90;;;;;;4955849;29;20027;-52
2023/12/30 03:48:57;;;;;;;54.45;37.47;;;11.10;99.90;;;;;;4955367;29;20038;-52
2023/12/30 03:51:23;;;;;;;48.20;36.22;;;11.10;99.90;;;;;;4955801;29;20027;-52
2023/12/30 03:53:50;;;;;;;52.67;39.22;;;11.00;99.90;;;;;;4955551;29;20024;-51
2023/12/30 03:56:16;;;;;;;50.10;37.45;;;11.20;99.90;;;;;;4955441;29;20043;-52
2023/12/30 03:58:42;;;;;;;55.80;39.63;;;10.90;99.90;;;;;;4955798;29;20041;-49
2023/12/30 04:01:08;;;;;;;48.58;35.30;;;10.90;99.90;;;;;;4921428;29;20062;-50
2023/12/30 04:03:33;;;;;;;38.72;28.08;;;10.80;99.90;;;;;;4955396;29;20494;-53
2023/12/30 04:05:59;;;;;;;39.75;29.83;;;10.80;99.90;;;;;;4955161;29;20055;-50
2023/12/30 04:08:25;;;;;;;36.25;27.38;;;10.80;99.90;;;;;;4921241;29;20037;-51
2023/12/30 04:10:50;;;;;;;27.77;21.30;;;10.80;99.90;;;;;;4955316;29;20534;-52
2023/12/30 04:13:16;;;;;;;27.88;20.33;;;;;;;;;;4936825;29;20043;-52
2023/12/30 04:15:42;;;;;;;28.08;20.65;;;10.70;99.90;;;;;;4955346;29;20133;-50
2023/12/30 04:18:08;;;;;;;23.75;17.13;;;10.70;99.90;;;;;;4954847;29;20066;-51
2023/12/30 04:20:34;;;;;;;20.65;14.75;;;10.60;99.90;;;;;;4955252;29;20031;-51
2023/12/30 04:22:59;;;;;;;16.80;13.48;;;10.20;99.90;;;;;;4955232;29;20103;-52
2023/12/30 04:25:25;;;;;;;18.45;12.38;;;10.20;99.90;;;;;;4955104;29;20126;-51
2023/12/30 04:27:51;;;;;;;14.15;11.30;;;10.10;99.90;;;;;;4954663;29;20130;-51
2023/12/30 04:30:16;;;;;;;17.77;13.93;;;10.10;99.90;;;;;;4954820;29;20035;-52
2023/12/30 04:32:42;;;;;;;17.35;13.05;;;10.20;99.90;;;;;;4955181;29;20042;-52
2023/12/30 04:35:08;;;;;;;18.08;12.40;;;10.20;99.90;;;;;;4936444;29;20039;-51
2023/12/30 04:37:34;;;;;;;13.90;10.52;;;10.30;99.90;;;;;;4954534;29;20074;-52
2023/12/30 04:39:59;;;;;;;16.30;10.50;;;10.30;99.90;;;;;;4955116;29;20065;-51
2023/12/30 04:42:25;;;;;;;13.75;10.68;;;10.30;99.90;;;;;;4954294;29;20120;-52
2023/12/30 04:44:51;;;;;;;15.18;10.32;;;10.40;99.90;;;;;;4954825;29;20485;-52
2023/12/30 04:47:17;;;;;;;12.60;9.13;;;10.50;99.90;;;;;;4954565;29;20039;-52
2023/12/30 04:49:42;;;;;;;14.23;8.85;;;10.50;99.90;;;;;;4920762;29;20117;-52
2023/12/30 04:52:08;;;;;;;12.88;9.20;;;10.50;99.90;;;;;;4954575;29;20027;-50
2023/12/30 04:54:34;;;;;;;11.18;8.63;;;10.50;99.90;;;;;;4954318;29;20035;-51
2023/12/30 04:57:00;;;;;;;14.13;8.82;;;10.40;99.90;;;;;;4954843;29;20035;-50
2023/12/30 04:59:26;;;;;;;12.43;9.45;;;10.40;99.90;;;;;;4936191;29;20039;-51
2023/12/30 05:01:53;;;;;;;18.25;14.18;;;10.50;99.90;;;;;;4954433;29;20039;-53
2023/12/30 05:04:19;;;;;;;13.35;10.23;;;10.60;99.90;;;;;;4954568;29;20035;-49
2023/12/30 05:06:45;;;;;;;11.73;8.27;;;10.60;99.90;;;;;;4904878;29;20122;-50
2023/12/30 05:09:14;;;;;;;10.35;7.07;;;10.60;99.90;;;;;;4920441;29;20118;-51
2023/12/30 05:11:44;;;;;;;12.98;8.38;;;10.70;99.90;;;;;;4954376;29;20039;-50
2023/12/30 05:14:11;;;;;;;9.82;7.13;;;10.80;99.90;;;;;;4954379;29;20155;-52
2023/12/30 05:16:44;;;;;;;11.13;7.57;;;10.80;99.90;;;;;;4954064;29;20090;-52
2023/12/30 05:19:10;;;;;;;11.43;8.32;;;10.90;99.90;;;;;;4953892;29;20038;-51
2023/12/30 05:21:36;;;;;;;13.98;8.68;;;10.90;99.90;;;;;;4920472;29;20043;-51
2023/12/30 05:24:02;;;;;;;11.50;8.73;;;10.90;99.90;;;;;;4920084;28;20638;-52
2023/12/30 05:26:27;;;;;;;9.63;7.32;;;10.90;99.90;;;;;;4953614;29;20055;-51
2023/12/30 05:28:55;;;;;;;11.68;7.80;;;11.00;99.90;;;;;;4953936;29;20023;-51
2023/12/30 05:31:21;;;;;;;19.92;9.70;;;11.20;99.90;;;;;;4953880;29;20502;-52
2023/12/30 05:33:47;;;;;;;16.73;9.23;;;11.30;99.90;;;;;;4953909;29;20031;-51
2023/12/30 05:36:12;;;;;;;9.73;7.30;;;11.40;99.90;;;;;;4932010;29;20799;-51
2023/12/30 05:38:38;;;;;;;10.00;6.57;;;11.40;99.90;;;;;;4932268;29;20040;-51
2023/12/30 05:41:04;;;;;;;10.73;7.32;;;11.50;99.90;;;;;;4916563;29;20050;-52
2023/12/30 05:43:30;;;;;;;17.85;12.77;;;11.50;99.90;;;;;;4932248;29;20496;-52
2023/12/30 05:45:55;;;;;;;14.48;10.65;;;11.50;99.90;;;;;;4932084;29;20483;-49
2023/12/30 05:48:21;;;;;;;13.93;9.75;;;11.40;99.90;;;;;;4932236;29;20041;-52
2023/12/30 05:50:47;;;;;;;10.70;8.25;;;11.40;99.90;;;;;;4916268;29;20036;-51
2023/12/30 05:53:12;;;;;;;14.07;8.55;;;11.40;99.90;;;;;;4932345;29;20119;-51
2023/12/30 05:55:38;;;;;;;9.00;6.50;;;11.40;99.90;;;;;;4932154;29;20079;-49
2023/12/30 05:58:04;;;;;;;10.32;6.55;;;11.30;99.90;;;;;;4932090;29;20035;-50
2023/12/30 06:00:30;;;;;;;8.73;6.78;;;11.50;99.90;;;;;;4913276;29;20036;-50
2023/12/30 06:02:56;;;;;;;10.40;7.45;;;11.60;99.90;;;;;;4924102;29;20119;-50
2023/12/30 06:05:21;;;;;;;11.60;7.32;;;11.60;99.90;;;;;;4881482;29;20068;-50
2023/12/30 06:07:47;;;;;;;14.23;8.05;;;11.40;99.90;;;;;;4928725;29;20122;-50
2023/12/30 06:10:13;;;;;;;10.00;7.47;;;11.20;99.90;;;;;;4935097;29;20035;-52
2023/12/30 06:12:39;;;;;;;9.82;6.60;;;11.10;99.90;;;;;;4877507;29;20039;-52
2023/12/30 06:15:06;;;;;;;31.15;16.75;;;11.10;99.90;;;;;;4953414;29;20111;-52
2023/12/30 06:17:31;;;;;;;20.20;11.55;;;11.20;99.90;;;;;;4935327;29;20043;-51
2023/12/30 06:19:57;;;;;;;25.75;15.30;;;11.30;99.90;;;;;;4932065;29;20542;-50
2023/12/30 06:22:23;;;;;;;10.75;7.45;;;11.20;99.90;;;;;;4952772;29;20380;-52
2023/12/30 06:24:49;;;;;;;16.55;11.63;;;11.20;99.90;;;;;;4919463;29;20090;-50
2023/12/30 06:27:14;;;;;;;13.77;11.32;;;11.10;99.90;;;;;;4903613;29;20047;-52
2023/12/30 06:29:40;;;;;;;10.50;6.93;;;11.00;99.90;;;;;;4953648;29;20027;-51
2023/12/30 06:32:06;;;;;;;10.25;7.05;;;11.00;99.90;;;;;;4903504;29;20039;-50
2023/12/30 06:34:34;;;;;;;14.85;10.15;;;10.90;99.90;;;;;;4953357;29;20046;-51
2023/12/30 06:37:00;;;;;;;12.00;6.43;;;10.90;99.90;;;;;;4955530;28;20058;-50
2023/12/30 06:39:26;;;;;;;9.63;5.80;;;11.00;99.90;;;;;;4939665;29;20027;-50
2023/12/30 06:41:51;;;;;;;8.73;6.18;;;10.90;99.90;;;;;;4956440;29;20113;-52
2023/12/30 06:44:17;;;;;;;12.75;6.82;;;10.90;99.90;;;;;;4956393;29;20031;-51
2023/12/30 06:46:43;;;;;;;12.80;10.20;;;11.00;99.90;;;;;;4957037;29;20507;-51
2023/12/30 06:49:09;;;;;;;11.25;9.45;;;11.00;99.90;;;;;;4953535;29;20051;-51
2023/12/30 06:51:35;;;;;;;7.90;5.97;;;11.00;99.90;;;;;;4955801;29;20034;-51
2023/12/30 06:54:00;;;;;;;9.50;6.70;;;11.00;99.90;;;;;;4955979;29;20040;-50
2023/12/30 06:56:26;;;;;;;13.25;10.20;;;11.00;99.90;;;;;;4914266;29;20043;-50
2023/12/30 06:58:52;;;;;;;15.18;10.07;;;11.10;99.90;;;;;;4955971;29;20027;-51
2023/12/30 07:01:20;;;;;;;11.80;8.23;;;11.10;99.90;;;;;;4923143;29;20490;-51
2023/12/30 07:03:47;;;;;;;8.55;6.28;;;11.20;99.90;;;;;;4938233;29;20086;-50
2023/12/30 07:06:13;;;;;;;8.27;6.18;;;11.10;99.90;;;;;;4956541;29;20027;-50
2023/12/30 07:08:38;;;;;;;8.57;4.72;;;11.10;99.90;;;;;;4922058;29;20110;-51
2023/12/30 07:11:05;;;;;;;15.07;9.05;;;11.10;99.90;;;;;;4955097;29;20035;-50
2023/12/30 07:13:30;;;;;;;8.05;5.75;;;11.00;99.90;;;;;;4956120;29;20078;-51
2023/12/30 07:15:56;;;;;;;9.18;6.05;;;10.90;99.90;;;;;;4921404;29;20043;-50
2023/12/30 07:18:22;;;;;;;14.32;8.05;;;10.80;99.90;;;;;;4922097;29;20039;-52
2023/12/30 07:20:47;;;;;;;10.88;7.90;;;10.80;99.90;;;;;;4955368;29;20466;-51
2023/12/30 07:23:13;;;;;;;18.38;11.43;;;10.70;99.90;;;;;;4956253;29;20191;-51
2023/12/30 07:25:40;;;;;;;16.92;12.57;;;10.80;99.90;;;;;;4927111;29;20035;-51
2023/12/30 07:28:06;;;;;;;12.38;9.07;;;11.00;99.90;;;;;;4905037;29;20070;-50
2023/12/30 07:30:32;;;;;;;10.23;5.90;;;11.00;99.90;;;;;;4917159;29;20051;-50
2023/12/30 07:32:58;;;;;;;7.78;5.68;;;10.90;99.90;;;;;;4937641;29;20502;-52
2023/12/30 07:35:24;;;;;;;9.25;6.80;;;10.90;99.90;;;;;;4955728;29;20134;-52
2023/12/30 07:37:50;;;;;;;10.95;6.53;;;11.00;99.90;;;;;;4920546;29;20114;-51
2023/12/30 07:40:16;;;;;;;10.80;7.57;;;11.00;99.90;;;;;;4913602;29;20035;-51
2023/12/30 07:42:41;;;;;;;12.82;10.73;;;11.00;99.90;;;;;;4955000;29;20028;-49
2023/12/30 07:45:08;;;;;;;10.18;8.32;;;11.10;99.90;;;;;;4955227;29;20063;-51
2023/12/30 07:47:34;;;;;;;10.15;6.43;;;11.20;99.90;;;;;;4912746;29;20094;-51
2023/12/30 07:50:00;;;;;;;9.23;6.03;;;11.30;99.90;;;;;;4954322;29;20035;-50
2023/12/30 07:52:25;;;;;;;8.75;6.15;;;11.20;99.90;;;;;;4953574;29;20114;-51
2023/12/30 07:54:52;;;;;;;10.80;5.45;;;11.20;99.90;;;;;;4954411;29;20047;-52
2023/12/30 07:57:18;;;;;;;13.70;8.50;;;11.20;99.90;;;;;;4954509;29;20031;-52
2023/12/30 07:59:44;;;;;;;74.20;37.25;;;;;;;;;;4952307;29;20058;-50
2023/12/30 08:02:10;;;;;;;59.80;46.40;;;11.40;99.90;;;;;;4907887;29;20400;-52
2023/12/30 08:04:36;;;;;;;38.90;29.42;;;11.50;99.90;;;;;;4905091;29;20092;-50
2023/12/30 08:07:02;;;;;;;45.40;29.95;;;11.70;99.90;;;;;;4866346;29;20041;-50
2023/12/30 08:09:27;;;;;;;30.85;21.40;;;11.90;99.90;;;;;;4831513;29;20048;-50
2023/12/30 08:11:53;;;;;;;29.67;16.70;;;12.20;99.90;;;;;;4830250;29;20046;-52
2023/12/30 08:14:19;;;;;;;24.65;17.55;;;12.50;99.90;;;;;;4829945;29;20050;-51
2023/12/30 08:16:45;;;;;;;34.38;22.23;;;12.60;99.90;;;;;;4831354;29;20054;-50
2023/12/30 08:19:11;;;;;;;20.60;15.48;;;12.80;99.90;;;;;;4829711;29;20042;-52
2023/12/30 08:21:37;;;;;;;18.20;10.48;;;;;;;;;;4830934;29;20078;-52
2023/12/30 08:24:06;;;;;;;25.60;16.50;;;;;;;;;;4824292;29;20041;-52
2023/12/30 08:26:32;;;;;;;24.38;19.60;;;13.30;99.90;;;;;;4809017;29;20156;-51
2023/12/30 08:28:57;;;;;;;28.48;21.75;;;13.40;99.90;;;;;;4838913;29;20211;-51
2023/12/30 08:31:23;;;;;;;39.30;25.15;;;13.50;99.90;;;;;;4839211;29;20034;-50
2023/12/30 08:33:50;;;;;;;40.97;28.40;;;13.60;99.90;;;;;;4865921;29;20080;-52
2023/12/30 08:36:16;;;;;;;31.10;24.67;;;13.70;99.90;;;;;;4876154;29;20045;-52
2023/12/30 08:38:42;;;;;;;23.08;16.25;;;13.80;99.90;;;;;;4875731;29;20097;-50
2023/12/30 08:41:14;;;;;;;21.13;15.32;;;13.90;99.90;;;;;;4874240;29;20111;-52
2023/12/30 08:43:40;;;;;;;22.42;14.80;;;;;;;;;;4888526;29;20039;-52
2023/12/30 08:46:06;;;;;;;20.15;14.32;;;14.20;99.90;;;;;;4953239;29;20050;-50
2023/12/30 08:48:32;;;;;;;17.40;12.68;;;14.20;99.90;;;;;;4954727;29;20476;-51
2023/12/30 08:50:57;;;;;;;23.30;17.42;;;14.30;99.90;;;;;;4903867;29;20122;-50
2023/12/30 08:53:24;;;;;;;73.07;48.78;;;14.30;99.90;;;;;;4954380;29;20090;-50
2023/12/30 08:55:52;;;;;;;60.42;42.90;;;14.40;99.90;;;;;;4954512;29;20039;-52
2023/12/30 08:58:18;;;;;;;58.17;40.67;;;14.50;99.90;;;;;;4954132;29;20066;-50
2023/12/30 09:00:44;;;;;;;286.70;176.38;;;14.90;99.90;;;;;;4953057;28;20023;-51
2023/12/30 09:03:10;;;;;;;206.07;121.55;;;;;;;;;;4954020;29;20027;-50
2023/12/30 09:05:37;;;;;;;138.05;88.30;;;;;;;;;;4954133;29;20032;-51
2023/12/30 09:08:04;;;;;;;110.50;73.28;;;;;;;;;;4952570;29;20498;-51
2023/12/30 09:10:31;;;;;;;67.05;41.58;;;;;;;;;;4952742;29;20027;-51
2023/12/30 09:12:57;;;;;;;57.47;37.08;;;;;;;;;;4952903;29;20046;-51
2023/12/30 09:15:23;;;;;;;52.42;31.98;;;17.30;99.90;;;;;;4903333;29;20062;-51
2023/12/30 09:17:49;;;;;;;34.05;22.27;;;;;;;;;;4953305;29;20023;-52
2023/12/30 09:20:15;;;;;;;24.83;15.68;;;;;;;;;;4919715;29;20045;-55
2023/12/30 09:22:41;;;;;;;20.55;14.40;;;16.30;99.90;;;;;;4953684;29;20038;-53
2023/12/30 09:25:07;;;;;;;21.10;14.38;;;16.60;99.90;;;;;;4935965;29;20039;-53
2023/12/30 09:27:33;;;;;;;19.38;14.73;;;16.70;99.90;;;;;;4935354;29;20086;-52
2023/12/30 09:29:59;;;;;;;20.83;14.50;;;16.70;99.90;;;;;;4953138;29;20101;-52
2023/12/30 09:32:25;;;;;;;25.77;17.33;;;;;;;;;;4920057;29;20035;-49
2023/12/30 09:34:51;;;;;;;22.35;15.43;;;;;;;;;;4920118;29;20043;-51
2023/12/30 09:37:19;;;;;;;24.77;19.38;;;;;;;;;;4952231;29;20020;-50
2023/12/30 09:39:46;;;;;;;29.60;20.15;;;;;;;;;;4953223;29;20039;-50
2023/12/30 09:42:11;;;;;;;36.00;22.75;;;16.50;99.90;;;;;;4953844;29;20038;-50
2023/12/30 09:44:39;;;;;;;43.65;27.45;;;16.90;99.90;;;;;;4954180;29;20035;-50
2023/12/30 09:47:10;;;;;;;38.67;27.05;;;16.80;99.90;;;;;;4953702;29;20030;-50
2023/12/30 09:49:37;;;;;;;42.87;29.77;;;;;;;;;;4894958;29;20103;-50
2023/12/30 09:52:05;;;;;;;64.85;39.92;;;;;;;;;;4953132;29;20031;-50
2023/12/30 09:54:30;;;;;;;137.77;75.80;;;16.30;99.90;;;;;;4953372;29;20035;-49
2023/12/30 09:56:57;;;;;;;131.32;75.15;;;16.40;99.90;;;;;;4904225;29;20511;-51
2023/12/30 09:59:26;;;;;;;122.00;69.03;;;16.40;99.90;;;;;;4953663;29;20132;-50
2023/12/30 10:01:54;;;;;;;30.75;18.75;;;16.40;99.90;;;;;;4953684;29;20181;-51
2023/12/30 10:04:20;;;;;;;72.03;43.28;;;16.40;99.90;;;;;;4953729;29;20479;-50
2023/12/30 10:06:48;;;;;;;40.40;28.90;;;16.50;99.90;;;;;;4935456;29;20450;-52
2023/12/30 10:09:16;;;;;;;93.95;49.47;;;16.30;99.90;;;;;;4953367;29;20042;-51
2023/12/30 10:11:43;;;;;;;89.80;48.97;;;;;;;;;;4920783;29;20043;-50
2023/12/30 10:14:09;;;;;;;89.47;45.88;;;16.10;99.90;;;;;;4956909;29;20170;-51
2023/12/30 10:16:36;;;;;;;72.40;40.38;;;16.10;99.90;;;;;;4957052;29;20039;-50
2023/12/30 10:19:01;;;;;;;83.20;47.65;;;16.10;99.90;;;;;;4956496;29;20031;-51
2023/12/30 10:21:32;;;;;;;55.42;32.38;;;16.10;99.90;;;;;;4956692;29;20027;-51
2023/12/30 10:24:03;;;;;;;58.58;35.13;;;;;;;;;;4922716;29;20126;-50
2023/12/30 10:26:30;;;;;;;56.33;32.80;;;15.90;99.90;;;;;;4956540;29;20063;-50
2023/12/30 10:28:56;;;;;;;53.63;33.47;;;15.80;99.90;;;;;;4956443;29;20467;-50
2023/12/30 10:31:21;;;;;;;65.90;40.45;;;15.90;99.90;;;;;;4956261;29;20054;-51
2023/12/30 10:33:48;;;;;;;60.13;35.58;;;15.90;99.90;;;;;;4956272;29;20531;-51
2023/12/30 10:36:15;;;;;;;56.72;36.25;;;16.00;99.90;;;;;;4956188;29;20126;-50
2023/12/30 10:38:43;;;;;;;57.53;36.05;;;16.00;99.90;;;;;;4956246;29;20479;-51
2023/12/30 10:41:09;;;;;;;54.22;33.92;;;16.10;99.90;;;;;;4956039;29;20051;-51
2023/12/30 10:43:36;;;;;;;45.10;30.08;;;;;;;;;;4955787;29;20479;-50
2023/12/30 10:46:03;;;;;;;43.55;29.63;;;16.60;99.90;;;;;;4896393;29;20071;-49
2023/12/30 10:48:32;;;;;;;45.78;27.23;;;;;;;;;;4896394;29;20045;-51
2023/12/30 10:50:59;;;;;;;47.83;25.75;;;;;;;;;;4895723;29;20135;-51
2023/12/30 10:53:38;;;;;;;50.85;29.75;;;;;;;;;;4895787;29;20115;-51
2023/12/30 10:56:05;;;;;;;36.08;21.98;;;;;;;;;;4894320;29;20112;-51
2023/12/30 10:58:34;;;;;;;24.38;17.08;;;;;;;;;;4895836;29;20112;-51
2023/12/30 11:01:04;;;;;;;26.13;17.77;;;;;;;;;;4896217;29;20036;-51
2023/12/30 11:03:32;;;;;;;20.77;13.32;;;18.00;99.90;;;;;;4896211;29;20033;-51
2023/12/30 11:06:33;;;;;;;17.98;13.43;;;18.00;95.10;;;;;;4895024;29;20065;-50
2023/12/30 11:09:05;;;;;;;19.55;11.40;;;18.20;95.10;;;;;;4890605;29;20123;-54
2023/12/30 11:11:31;;;;;;;;;;;18.20;95.00;;;;;;4895429;29;20436;-49
2023/12/30 11:13:58;;;;;;;11.07;6.95;;;18.00;95.00;;;;;;4895015;29;19937;-51
2023/12/30 11:16:23;;;;;;;6.13;3.42;;;17.90;95.00;;;;;;4909656;29;20039;-50
2023/12/30 11:18:51;;;;;;;6.30;3.58;;;17.90;94.60;;;;;;4953977;29;20570;-50
2023/12/30 11:21:40;;;;;;;4.05;3.00;;;17.80;94.60;;;;;;4927435;29;20085;-50
2023/12/30 11:24:08;;;;;;;6.43;3.22;;;17.60;94.30;;;;;;4912317;29;20042;-50
2023/12/30 11:26:42;;;;;;;8.98;5.40;;;17.70;94.80;;;;;;4953665;29;20066;-50
2023/12/30 11:29:25;;;;;;;15.07;11.00;;;17.90;94.70;;;;;;4954231;29;20027;-50
2023/12/30 11:31:51;;;;;;;;;;;18.10;94.00;;;;;;4954688;29;20771;-51
2023/12/30 11:34:17;;;;;;;6.57;4.72;;;;;;;;;;4954061;29;19954;-51
2023/12/30 11:36:47;;;;;;;6.18;4.50;;;19.10;95.80;;;;;;4954138;29;20053;-51
2023/12/30 11:39:21;;;;;;;5.68;3.30;;;18.90;91.80;;;;;;4954311;29;20031;-50
2023/12/30 11:41:48;;;;;;;11.05;4.60;;;18.80;91.60;;;;;;4954099;29;20114;-51
2023/12/30 11:44:14;;;;;;;7.90;4.55;;;18.60;91.90;;;;;;4954074;29;20483;-51
2023/12/30 11:46:41;;;;;;;6.30;4.40;;;18.60;92.00;;;;;;4954132;29;20054;-51
2023/12/30 11:49:07;;;;;;;5.78;4.43;;;18.40;92.60;;;;;;4953983;29;20023;-51
2023/12/30 11:51:33;;;;;;;8.55;3.83;;;;;;;;;;4953491;29;20090;-50
2023/12/30 11:54:05;;;;;;;5.35;3.45;;;18.50;99.90;;;;;;4911391;29;20036;-50
2023/12/30 11:56:32;;;;;;;3.10;2.50;;;18.60;92.80;;;;;;4953529;29;20050;-51
2023/12/30 11:58:58;;;;;;;6.95;3.10;;;18.60;92.10;;;;;;4903242;29;20036;-50
2023/12/30 12:01:24;;;;;;;4.45;2.60;;;18.60;92.00;;;;;;4953881;29;20031;-50
2023/12/30 12:03:50;;;;;;;3.70;2.60;;;18.60;92.40;;;;;;4954083;29;20411;-50
2023/12/30 12:06:16;;;;;;;6.97;4.25;;;18.50;92.10;;;;;;4954797;29;20035;-50
2023/12/30 12:08:42;;;;;;;7.60;2.85;;;18.50;92.10;;;;;;4954376;29;20046;-51
2023/12/30 12:11:08;;;;;;;3.83;2.53;;;18.50;92.10;;;;;;4954264;29;20035;-49
2023/12/30 12:13:34;;;;;;;6.60;3.47;;;18.50;91.70;;;;;;4904653;29;20046;-51
2023/12/30 12:15:59;;;;;;;6.55;2.78;;;18.30;92.20;;;;;;4954204;29;20039;-50
2023/12/30 12:18:25;;;;;;;5.03;2.50;;;18.30;92.70;;;;;;4954257;29;20023;-49
2023/12/30 12:20:52;;;;;;;5.40;3.63;;;18.20;92.40;;;;;;4954227;29;20391;-49
2023/12/30 12:23:18;;;;;;;4.28;2.85;;;18.20;92.40;;;;;;4954154;29;20047;-51
2023/12/30 12:25:45;;;;;;;5.60;2.78;;;18.10;92.10;;;;;;4954197;29;20050;-50
2023/12/30 12:28:12;;;;;;;6.95;3.40;;;18.10;92.50;;;;;;4953833;29;20066;-50
2023/12/30 12:30:39;;;;;;;5.30;3.30;;;18.10;92.70;;;;;;4954101;29;20023;-49
2023/12/30 12:33:06;;;;;;;8.18;3.40;;;18.10;92.60;;;;;;4953726;29;20035;-51
2023/12/30 12:35:32;;;;;;;8.23;3.55;;;18.10;92.70;;;;;;4953822;28;20077;-49
2023/12/30 12:37:59;;;;;;;4.55;3.03;;;18.10;92.90;;;;;;4954135;29;20028;-51